Time;durP1;ratioP1;P1;durP2;ratioP2;P2;SDS_P1;SDS_P2;PMS_P1;PMS_P2;Temp;Humidity;BMP_temperature;BMP_pressure;BME280_temperature;BME280_humidity;BME280_pressure;Samples;Min_cycle;Max_cycle;Signal;HPM_P1;HPM_P2
2024/04/22 00:00:07;;;;;;;;;;;;;;;;;;1108528;26;19937;-75
2024/04/22 00:00:37;;;;;;;;;;;;;;;;;;1109088;26;20312;-75
2024/04/22 00:01:08;;;;;;;;;;;;;;;;;;1109386;26;19930;-75
2024/04/22 00:01:38;;;;;;;;;;;;;;;;;;1108104;26;19937;-75
2024/04/22 00:02:08;;;;;;;;;;;;;;;;;;1107908;26;19934;-75
2024/04/22 00:02:38;;;;;;;;;;;;;;;;;;1108493;26;19938;-75
2024/04/22 00:03:08;;;;;;;;;;;;;;;;;;1108867;26;19929;-75
2024/04/22 00:03:39;;;;;;;;;;;;;;;;;;1109856;26;19938;-75
2024/04/22 00:04:09;;;;;;;;;;;;;;;;;;1107611;26;19945;-75
2024/04/22 00:04:39;;;;;;;;;;;;;;;;;;1109533;26;19938;-75
2024/04/22 00:05:11;;;;;;;;;;;;;;;;;;1109518;26;19930;-75
2024/04/22 00:05:41;;;;;;;;;;;;;;;;;;1105224;26;19938;-75
2024/04/22 00:06:11;;;;;;;;;;;;;;;;;;1107807;26;20277;-75
2024/04/22 00:06:43;;;;;;;;;;;;;;;;;;1108105;26;20373;-75
2024/04/22 00:07:14;;;;;;;;;;;;;;;;;;1108395;26;20492;-75
2024/04/22 00:07:44;;;;;;;;;;;;;;;;;;1108929;26;19989;-75
2024/04/22 00:08:14;;;;;;;;;;;;;;;;;;1108852;26;19973;-75
2024/04/22 00:08:44;;;;;;;;;;;;;;;;;;1108547;26;19933;-75
2024/04/22 00:09:15;;;;;;;;;;;;;;;;;;1102124;26;19939;-75
2024/04/22 00:09:45;;;;;;;;;;;;;;;;;;1102098;26;19930;-75
2024/04/22 00:10:15;;;;;;;;;;;;;;;;;;1100816;26;19966;-75
2024/04/22 00:10:45;;;;;;;;;;;;;;;;;;1100935;26;19967;-75
2024/04/22 00:11:15;;;;;;;;;;;;;;;;;;1110244;26;19966;-75
2024/04/22 00:11:46;;;;;;;;;;;;;;;;;;1108290;26;19937;-75
2024/04/22 00:12:16;;;;;;;;;;;;;;;;;;1107871;26;19938;-75
2024/04/22 00:12:46;;;;;;;;;;;;;;;;;;1109577;26;19930;-75
2024/04/22 00:13:16;;;;;;;;;;;;;;;;;;1108747;26;19936;-75
2024/04/22 00:13:46;;;;;;;;;;;;;;;;;;1108555;26;19929;-75
2024/04/22 00:14:17;;;;;;;;;;;;;;;;;;1107823;26;20283;-75
2024/04/22 00:14:47;;;;;;;;;;;;;;;;;;1108058;26;19930;-75
2024/04/22 00:15:18;;;;;;;;;;;;;;;;;;1101331;26;19937;-75
2024/04/22 00:15:48;;;;;;;;;;;;;;;;;;1101951;26;19938;-75
2024/04/22 00:16:18;;;;;;;;;;;;;;;;;;1097711;26;19931;-75
2024/04/22 00:16:48;;;;;;;;;;;;;;;;;;1097919;27;19935;-75
2024/04/22 00:17:18;;;;;;;;;;;;;;;;;;1100571;26;19934;-75
2024/04/22 00:17:49;;;;;;;;;;;;;;;;;;1108463;26;20044;-75
2024/04/22 00:18:19;;;;;;;;;;;;;;;;;;1108574;26;19931;-75
2024/04/22 00:18:50;;;;;;;;;;;;;;;;;;1109002;26;19982;-75
2024/04/22 00:19:20;;;;;;;;;;;;;;;;;;1108817;26;19937;-75
2024/04/22 00:19:53;;;;;;;;;;;;;;;;;;1107755;26;19937;-75
2024/04/22 00:20:23;;;;;;;;;;;;;;;;;;1107180;26;20003;-75
2024/04/22 00:20:53;;;;;;;;;;;;;;;;;;1101743;26;19944;-75
2024/04/22 00:21:24;;;;;;;;;;;;;;;;;;1100977;26;20000;-75
2024/04/22 00:21:54;;;;;;;;;;;;;;;;;;1107100;26;19938;-75
2024/04/22 00:22:24;;;;;;;;;;;;;;;;;;1108689;26;19944;-75
2024/04/22 00:22:55;;;;;;;;;;;;;;;;;;1109494;26;19953;-75
2024/04/22 00:23:25;;;;;;;;;;;;;;;;;;1108972;26;19929;-75
2024/04/22 00:23:55;;;;;;;;;;;;;;;;;;1108713;26;19948;-75
2024/04/22 00:24:25;;;;;;;;;;;;;;;;;;1109011;26;19930;-75
2024/04/22 00:24:57;;;;;;;;;;;;;;;;;;1108109;26;19934;-75
2024/04/22 00:25:28;;;;;;;;;;;;;;;;;;1105916;26;20495;-75
2024/04/22 00:25:58;;;;;;;;;;;;;;;;;;1099405;26;20009;-75
2024/04/22 00:26:28;;;;;;;;;;;;;;;;;;1101932;26;19930;-75
2024/04/22 00:26:58;;;;;;;;;;;;;;;;;;1104806;26;19930;-75
2024/04/22 00:27:29;;;;;;;;;;;;;;;;;;1104910;26;19930;-75
2024/04/22 00:27:59;;;;;;;;;;;;;;;;;;1104676;26;19937;-75
2024/04/22 00:28:29;;;;;;;;;;;;;;;;;;1108917;26;19930;-75
2024/04/22 00:29:00;;;;;;;;;;;;;;;;;;1108413;26;20391;-75
2024/04/22 00:29:30;;;;;;;;;;;;;;;;;;1101228;26;20033;-75
2024/04/22 00:30:00;;;;;;;;;;;;;;;;;;1100783;26;19963;-75
2024/04/22 00:30:30;;;;;;;;;;;;;;;;;;1101725;26;19967;-75
2024/04/22 00:31:01;;;;;;;;;;;;;;;;;;1108082;26;19961;-75
2024/04/22 00:31:31;;;;;;;;;;;;;;;;;;1101449;26;19936;-75
2024/04/22 00:32:01;;;;;;;;;;;;;;;;;;1097568;27;20499;-75
2024/04/22 00:32:31;;;;;;;;;;;;;;;;;;1097761;27;20355;-75
2024/04/22 00:33:01;;;;;;;;;;;;;;;;;;1104826;26;20318;-75
2024/04/22 00:33:32;;;;;;;;;;;;;;;;;;1097465;26;20397;-75
2024/04/22 00:34:02;;;;;;;;;;;;;;;;;;1099489;26;20302;-75
2024/04/22 00:34:32;;;;;;;;;;;;;;;;;;1104720;26;20391;-75
2024/04/22 00:35:02;;;;;;;;;;;;;;;;;;1104821;26;20365;-75
2024/04/22 00:35:33;;;;;;;;;;;;;;;;;;1102394;26;20375;-75
2024/04/22 00:36:03;;;;;;;;;;;;;;;;;;1111877;26;20521;-75
2024/04/22 00:36:33;;;;;;;;;;;;;;;;;;1108527;26;20535;-75
2024/04/22 00:37:03;;;;;;;;;;;;;;;;;;1109290;26;19942;-75
2024/04/22 00:37:33;;;;;;;;;;;;;;;;;;1109185;26;20284;-75
2024/04/22 00:38:04;;;;;;;;;;;;;;;;;;1108826;26;20392;-75
2024/04/22 00:38:34;;;;;;;;;;;;;;;;;;1108799;26;19937;-75
2024/04/22 00:39:04;;;;;;;;;;;;;;;;;;1108478;26;19930;-75
2024/04/22 00:39:34;;;;;;;;;;;;;;;;;;1109111;26;19937;-75
2024/04/22 00:40:05;;;;;;;;;;;;;;;;;;1109253;26;19929;-75
2024/04/22 00:40:35;;;;;;;;;;;;;;;;;;1108614;26;20003;-75
2024/04/22 00:41:05;;;;;;;;;;;;;;;;;;1107859;26;20030;-75
2024/04/22 00:41:35;;;;;;;;;;;;;;;;;;1107811;26;19930;-75
2024/04/22 00:42:06;;;;;;;;;;;;;;;;;;1108628;26;19930;-75
2024/04/22 00:42:36;;;;;;;;;;;;;;;;;;1107742;26;19945;-75
2024/04/22 00:43:06;;;;;;;;;;;;;;;;;;1108720;26;19937;-75
2024/04/22 00:43:36;;;;;;;;;;;;;;;;;;1111474;26;19955;-75
2024/04/22 00:44:06;;;;;;;;;;;;;;;;;;1108789;26;19930;-75
2024/04/22 00:44:37;;;;;;;;;;;;;;;;;;1108769;26;19930;-75
2024/04/22 00:45:07;;;;;;;;;;;;;;;;;;1108861;26;19958;-75
2024/04/22 00:45:37;;;;;;;;;;;;;;;;;;1108694;26;19929;-75
2024/04/22 00:46:07;;;;;;;;;;;;;;;;;;1107896;26;19936;-75
2024/04/22 00:46:37;;;;;;;;;;;;;;;;;;1107830;26;19930;-75
2024/04/22 00:47:08;;;;;;;;;;;;;;;;;;1104974;26;19936;-75
2024/04/22 00:47:38;;;;;;;;;;;;;;;;;;1104679;26;19966;-75
2024/04/22 00:48:08;;;;;;;;;;;;;;;;;;1104409;26;19965;-75
2024/04/22 00:48:38;;;;;;;;;;;;;;;;;;1101249;26;19969;-75
2024/04/22 00:49:09;;;;;;;;;;;;;;;;;;1109053;26;19981;-75
2024/04/22 00:49:39;;;;;;;;;;;;;;;;;;1108778;26;19961;-75
2024/04/22 00:50:09;;;;;;;;;;;;;;;;;;1107924;26;19958;-75
2024/04/22 00:50:40;;;;;;;;;;;;;;;;;;1106146;26;19930;-75
2024/04/22 00:51:10;;;;;;;;;;;;;;;;;;1101423;26;19930;-75
2024/04/22 00:51:40;;;;;;;;;;;;;;;;;;1100825;26;20026;-75
2024/04/22 00:52:10;;;;;;;;;;;;;;;;;;1100606;26;19938;-75
2024/04/22 00:52:41;;;;;;;;;;;;;;;;;;1108525;26;19937;-75
2024/04/22 00:53:11;;;;;;;;;;;;;;;;;;1108673;26;19930;-75
2024/04/22 00:53:41;;;;;;;;;;;;;;;;;;1111922;26;19941;-75
2024/04/22 00:54:11;;;;;;;;;;;;;;;;;;1104460;26;19937;-75
2024/04/22 00:54:41;;;;;;;;;;;;;;;;;;1104913;26;19937;-75
2024/04/22 00:55:12;;;;;;;;;;;;;;;;;;1104662;26;19938;-75
2024/04/22 00:55:42;;;;;;;;;;;;;;;;;;1106998;26;20270;-75
2024/04/22 00:56:12;;;;;;;;;;;;;;;;;;1108776;26;19930;-75
2024/04/22 00:56:42;;;;;;;;;;;;;;;;;;1108699;26;19940;-75
2024/04/22 00:57:13;;;;;;;;;;;;;;;;;;1107998;26;19969;-76
2024/04/22 00:57:43;;;;;;;;;;;;;;;;;;1108739;26;19936;-75
2024/04/22 00:58:13;;;;;;;;;;;;;;;;;;1106878;26;19940;-75
2024/04/22 00:58:43;;;;;;;;;;;;;;;;;;1108454;26;19930;-75
2024/04/22 00:59:13;;;;;;;;;;;;;;;;;;1107944;26;19937;-75
2024/04/22 00:59:44;;;;;;;;;;;;;;;;;;1108292;26;19929;-75
2024/04/22 01:00:14;;;;;;;;;;;;;;;;;;1100760;26;19930;-75
2024/04/22 01:00:44;;;;;;;;;;;;;;;;;;1100879;26;19982;-75
2024/04/22 01:01:17;;;;;;;;;;;;;;;;;;1107566;26;19930;-75
2024/04/22 01:01:47;;;;;;;;;;;;;;;;;;1107946;26;19937;-75
2024/04/22 01:02:17;;;;;;;;;;;;;;;;;;1100673;26;19937;-75
2024/04/22 01:02:48;;;;;;;;;;;;;;;;;;1105155;26;20285;-75
2024/04/22 01:03:18;;;;;;;;;;;;;;;;;;1111869;26;19962;-75
2024/04/22 01:03:48;;;;;;;;;;;;;;;;;;1112227;26;19936;-75
2024/04/22 01:04:19;;;;;;;;;;;;;;;;;;1114934;26;19937;-75
2024/04/22 01:04:49;;;;;;;;;;;;;;;;;;1108357;26;19930;-75
2024/04/22 01:05:19;;;;;;;;;;;;;;;;;;1101024;26;19947;-75
2024/04/22 01:05:50;;;;;;;;;;;;;;;;;;1097437;26;20356;-75
2024/04/22 01:06:20;;;;;;;;;;;;;;;;;;1100538;26;20356;-75
2024/04/22 01:06:50;;;;;;;;;;;;;;;;;;1106456;26;19937;-75
2024/04/22 01:07:20;;;;;;;;;;;;;;;;;;1108179;26;19938;-75
2024/04/22 01:07:50;;;;;;;;;;;;;;;;;;1099388;26;19930;-75
2024/04/22 01:08:21;;;;;;;;;;;;;;;;;;1106857;26;19938;-75
2024/04/22 01:08:51;;;;;;;;;;;;;;;;;;1099442;26;20472;-75
2024/04/22 01:09:21;;;;;;;;;;;;;;;;;;1098835;26;20060;-75
2024/04/22 01:09:51;;;;;;;;;;;;;;;;;;1107595;26;19929;-75
2024/04/22 01:10:23;;;;;;;;;;;;;;;;;;1107424;26;19977;-75
2024/04/22 01:10:53;;;;;;;;;;;;;;;;;;1106455;26;19936;-75
2024/04/22 01:11:23;;;;;;;;;;;;;;;;;;1104963;26;19930;-75
2024/04/22 01:11:53;;;;;;;;;;;;;;;;;;1106932;26;19937;-75
2024/04/22 01:12:23;;;;;;;;;;;;;;;;;;1104756;26;19934;-75
2024/04/22 01:12:54;;;;;;;;;;;;;;;;;;1108568;26;19937;-75
2024/04/22 01:13:24;;;;;;;;;;;;;;;;;;1108292;26;19940;-75
2024/04/22 01:13:54;;;;;;;;;;;;;;;;;;1106160;26;19933;-75
2024/04/22 01:14:24;;;;;;;;;;;;;;;;;;1103773;26;20006;-75
2024/04/22 01:14:55;;;;;;;;;;;;;;;;;;1104709;26;19988;-75
2024/04/22 01:15:25;;;;;;;;;;;;;;;;;;1105048;26;19975;-75
2024/04/22 01:15:55;;;;;;;;;;;;;;;;;;1103946;26;19954;-75
2024/04/22 01:16:25;;;;;;;;;;;;;;;;;;1098975;26;19942;-75
2024/04/22 01:16:55;;;;;;;;;;;;;;;;;;1099046;26;19941;-76
2024/04/22 01:17:26;;;;;;;;;;;;;;;;;;1100146;26;19962;-76
2024/04/22 01:17:56;;;;;;;;;;;;;;;;;;1108803;26;19962;-76
2024/04/22 01:18:26;;;;;;;;;;;;;;;;;;1107955;26;19941;-76
2024/04/22 01:18:56;;;;;;;;;;;;;;;;;;1107797;26;20006;-76
2024/04/22 01:19:27;;;;;;;;;;;;;;;;;;1105550;26;19930;-76
2024/04/22 01:19:58;;;;;;;;;;;;;;;;;;1105563;26;20293;-76
2024/04/22 01:20:28;;;;;;;;;;;;;;;;;;1096770;26;20041;-76
2024/04/22 01:20:58;;;;;;;;;;;;;;;;;;1090578;27;19935;-76
2024/04/22 01:21:28;;;;;;;;;;;;;;;;;;1090379;27;19932;-76
2024/04/22 01:21:58;;;;;;;;;;;;;;;;;;1092309;27;19938;-76
2024/04/22 01:22:29;;;;;;;;;;;;;;;;;;1096031;26;19942;-76
2024/04/22 01:22:59;;;;;;;;;;;;;;;;;;1091143;26;19931;-76
2024/04/22 01:23:29;;;;;;;;;;;;;;;;;;1093775;26;19938;-76
2024/04/22 01:23:59;;;;;;;;;;;;;;;;;;1103579;26;19938;-76
2024/04/22 01:24:30;;;;;;;;;;;;;;;;;;1105540;26;21654;-76
2024/04/22 01:25:00;;;;;;;;;;;;;;;;;;1110142;26;20436;-75
2024/04/22 01:25:30;;;;;;;;;;;;;;;;;;1097542;26;20281;-75
2024/04/22 01:26:00;;;;;;;;;;;;;;;;;;1101398;26;20315;-75
2024/04/22 01:26:30;;;;;;;;;;;;;;;;;;1089962;26;20286;-75
2024/04/22 01:27:01;;;;;;;;;;;;;;;;;;1093724;26;20481;-75
2024/04/22 01:27:31;;;;;;;;;;;;;;;;;;1096202;26;19940;-75
2024/04/22 01:28:01;;;;;;;;;;;;;;;;;;1089925;26;19979;-75
2024/04/22 01:28:32;;;;;;;;;;;;;;;;;;1093639;26;19937;-75
2024/04/22 01:29:02;;;;;;;;;;;;;;;;;;1089673;27;20003;-76
2024/04/22 01:29:32;;;;;;;;;;;;;;;;;;1100756;26;20430;-76
2024/04/22 01:30:02;;;;;;;;;;;;;;;;;;1104186;26;19936;-75
2024/04/22 01:30:32;;;;;;;;;;;;;;;;;;1105754;26;19975;-76
2024/04/22 01:31:03;;;;;;;;;;;;;;;;;;1103171;26;19937;-76
2024/04/22 01:31:33;;;;;;;;;;;;;;;;;;1101387;26;19933;-76
2024/04/22 01:32:03;;;;;;;;;;;;;;;;;;1103975;26;19934;-76
2024/04/22 01:32:33;;;;;;;;;;;;;;;;;;1098247;26;20867;-76
2024/04/22 01:33:04;;;;;;;;;;;;;;;;;;1095184;26;20570;-76
2024/04/22 01:33:34;;;;;;;;;;;;;;;;;;1092483;26;20391;-76
2024/04/22 01:34:04;;;;;;;;;;;;;;;;;;1100270;26;20529;-76
2024/04/22 01:34:34;;;;;;;;;;;;;;;;;;1103780;26;19969;-76
2024/04/22 01:35:05;;;;;;;;;;;;;;;;;;1103614;26;19930;-76
2024/04/22 01:35:35;;;;;;;;;;;;;;;;;;1091460;26;19945;-76
2024/04/22 01:36:05;;;;;;;;;;;;;;;;;;1090727;27;20079;-76
2024/04/22 01:36:40;;;;;;;;;;;;;;;;;;1098530;26;19975;-76
2024/04/22 01:37:11;;;;;;;;;;;;;;;;;;1103951;26;19978;-76
2024/04/22 01:37:41;;;;;;;;;;;;;;;;;;1113110;26;19938;-76
2024/04/22 01:38:11;;;;;;;;;;;;;;;;;;1116519;26;19929;-76
2024/04/22 01:38:41;;;;;;;;;;;;;;;;;;1111793;26;19930;-76
2024/04/22 01:39:11;;;;;;;;;;;;;;;;;;1111281;26;19945;-76
2024/04/22 01:39:42;;;;;;;;;;;;;;;;;;1101091;26;19949;-76
2024/04/22 01:40:12;;;;;;;;;;;;;;;;;;1101829;26;20009;-76
2024/04/22 01:40:42;;;;;;;;;;;;;;;;;;1101194;26;20448;-76
2024/04/22 01:41:12;;;;;;;;;;;;;;;;;;1105056;26;20378;-76
2024/04/22 01:41:43;;;;;;;;;;;;;;;;;;1098918;26;19930;-76
2024/04/22 01:42:13;;;;;;;;;;;;;;;;;;1100215;26;20041;-76
2024/04/22 01:42:43;;;;;;;;;;;;;;;;;;1104596;26;19936;-76
2024/04/22 01:43:13;;;;;;;;;;;;;;;;;;1105859;26;20413;-75
2024/04/22 01:43:44;;;;;;;;;;;;;;;;;;1104199;26;19933;-75
2024/04/22 01:44:14;;;;;;;;;;;;;;;;;;1096281;26;20037;-75
2024/04/22 01:44:44;;;;;;;;;;;;;;;;;;1100170;26;20337;-75
2024/04/22 01:45:14;;;;;;;;;;;;;;;;;;1091185;27;19991;-75
2024/04/22 01:45:44;;;;;;;;;;;;;;;;;;1098594;26;19974;-74
2024/04/22 01:46:15;;;;;;;;;;;;;;;;;;1104080;26;19984;-75
2024/04/22 01:46:45;;;;;;;;;;;;;;;;;;1105005;26;19929;-75
2024/04/22 01:47:15;;;;;;;;;;;;;;;;;;1106168;26;19977;-75
2024/04/22 01:47:45;;;;;;;;;;;;;;;;;;1109159;26;20000;-75
2024/04/22 01:48:16;;;;;;;;;;;;;;;;;;1108114;26;19941;-75
2024/04/22 01:48:46;;;;;;;;;;;;;;;;;;1104076;26;19941;-75
2024/04/22 01:49:16;;;;;;;;;;;;;;;;;;1106953;26;20021;-75
2024/04/22 01:49:46;;;;;;;;;;;;;;;;;;1109064;26;19938;-75
2024/04/22 01:50:17;;;;;;;;;;;;;;;;;;1106825;26;19949;-75
2024/04/22 01:50:47;;;;;;;;;;;;;;;;;;1103589;26;19940;-75
2024/04/22 01:51:17;;;;;;;;;;;;;;;;;;1106485;26;19934;-75
2024/04/22 01:51:47;;;;;;;;;;;;;;;;;;1106798;26;19949;-75
2024/04/22 01:52:18;;;;;;;;;;;;;;;;;;1097543;26;20005;-75
2024/04/22 01:52:48;;;;;;;;;;;;;;;;;;1103857;26;19934;-75
2024/04/22 01:53:18;;;;;;;;;;;;;;;;;;1105620;26;19934;-75
2024/04/22 01:53:48;;;;;;;;;;;;;;;;;;1106109;26;19930;-75
2024/04/22 01:54:19;;;;;;;;;;;;;;;;;;1110254;26;19998;-75
2024/04/22 01:54:49;;;;;;;;;;;;;;;;;;1111375;26;19930;-75
2024/04/22 01:55:19;;;;;;;;;;;;;;;;;;1106610;26;20047;-74
2024/04/22 01:55:49;;;;;;;;;;;;;;;;;;1107143;26;19937;-74
2024/04/22 01:56:20;;;;;;;;;;;;;;;;;;1103518;26;19942;-75
2024/04/22 01:56:50;;;;;;;;;;;;;;;;;;1104935;26;20030;-75
2024/04/22 01:57:20;;;;;;;;;;;;;;;;;;1107166;26;19938;-75
2024/04/22 01:57:50;;;;;;;;;;;;;;;;;;1106239;26;19985;-75
2024/04/22 01:58:20;;;;;;;;;;;;;;;;;;1103744;26;19978;-74
2024/04/22 01:58:51;;;;;;;;;;;;;;;;;;1107564;26;19936;-75
2024/04/22 01:59:22;;;;;;;;;;;;;;;;;;1103170;26;20394;-74
2024/04/22 01:59:52;;;;;;;;;;;;;;;;;;1097519;26;19942;-74
2024/04/22 02:00:22;;;;;;;;;;;;;;;;;;1097107;26;19931;-74
2024/04/22 02:00:53;;;;;;;;;;;;;;;;;;1097770;26;19938;-75
2024/04/22 02:01:23;;;;;;;;;;;;;;;;;;1104906;26;19958;-75
2024/04/22 02:01:53;;;;;;;;;;;;;;;;;;1102747;26;19934;-76
2024/04/22 02:02:23;;;;;;;;;;;;;;;;;;1093713;26;19950;-76
2024/04/22 02:02:53;;;;;;;;;;;;;;;;;;1103166;26;19930;-76
2024/04/22 02:03:24;;;;;;;;;;;;;;;;;;1103607;26;19937;-76
2024/04/22 02:03:54;;;;;;;;;;;;;;;;;;1114460;26;19937;-76
2024/04/22 02:04:24;;;;;;;;;;;;;;;;;;1106217;26;19930;-75
2024/04/22 02:04:54;;;;;;;;;;;;;;;;;;1098358;26;19938;-75
2024/04/22 02:05:25;;;;;;;;;;;;;;;;;;1106181;26;19966;-75
2024/04/22 02:05:55;;;;;;;;;;;;;;;;;;1107487;26;20432;-75
2024/04/22 02:06:25;;;;;;;;;;;;;;;;;;1102841;26;20421;-75
2024/04/22 02:06:55;;;;;;;;;;;;;;;;;;1102613;26;19937;-75
2024/04/22 02:07:25;;;;;;;;;;;;;;;;;;1097069;26;19978;-75
2024/04/22 02:07:56;;;;;;;;;;;;;;;;;;1091530;27;19939;-75
2024/04/22 02:08:26;;;;;;;;;;;;;;;;;;1095306;26;20307;-75
2024/04/22 02:08:56;;;;;;;;;;;;;;;;;;1096161;26;20402;-75
2024/04/22 02:09:26;;;;;;;;;;;;;;;;;;1091041;27;19931;-75
2024/04/22 02:09:57;;;;;;;;;;;;;;;;;;1091536;27;19938;-74
2024/04/22 02:10:27;;;;;;;;;;;;;;;;;;1089354;27;19931;-74
2024/04/22 02:10:57;;;;;;;;;;;;;;;;;;1099363;26;20467;-75
2024/04/22 02:11:27;;;;;;;;;;;;;;;;;;1096837;26;20879;-75
2024/04/22 02:11:57;;;;;;;;;;;;;;;;;;1107519;26;20023;-75
2024/04/22 02:12:28;;;;;;;;;;;;;;;;;;1103888;26;20281;-74
2024/04/22 02:12:58;;;;;;;;;;;;;;;;;;1104732;26;20420;-74
2024/04/22 02:13:28;;;;;;;;;;;;;;;;;;1104045;26;20487;-74
2024/04/22 02:13:58;;;;;;;;;;;;;;;;;;1103786;26;20282;-74
2024/04/22 02:14:29;;;;;;;;;;;;;;;;;;1102572;26;20341;-74
2024/04/22 02:14:59;;;;;;;;;;;;;;;;;;1100350;26;19941;-74
2024/04/22 02:15:29;;;;;;;;;;;;;;;;;;1095602;26;19937;-74
2024/04/22 02:15:59;;;;;;;;;;;;;;;;;;1099803;26;19930;-75
2024/04/22 02:16:30;;;;;;;;;;;;;;;;;;1106825;26;20447;-75
2024/04/22 02:17:00;;;;;;;;;;;;;;;;;;1102706;26;20275;-75
2024/04/22 02:17:30;;;;;;;;;;;;;;;;;;1103031;26;19937;-75
2024/04/22 02:18:00;;;;;;;;;;;;;;;;;;1100899;26;19930;-75
2024/04/22 02:18:31;;;;;;;;;;;;;;;;;;1105406;26;20522;-75
2024/04/22 02:19:01;;;;;;;;;;;;;;;;;;1097026;26;19942;-75
2024/04/22 02:19:31;;;;;;;;;;;;;;;;;;1097718;26;19935;-75
2024/04/22 02:20:01;;;;;;;;;;;;;;;;;;1097239;26;19943;-74
2024/04/22 02:20:32;;;;;;;;;;;;;;;;;;1091470;27;20037;-74
2024/04/22 02:21:02;;;;;;;;;;;;;;;;;;1099733;26;19938;-74
2024/04/22 02:21:32;;;;;;;;;;;;;;;;;;1103398;26;19934;-75
2024/04/22 02:22:02;;;;;;;;;;;;;;;;;;1106430;26;20031;-75
2024/04/22 02:22:33;;;;;;;;;;;;;;;;;;1105016;26;19937;-75
2024/04/22 02:23:03;;;;;;;;;;;;;;;;;;1105251;26;19946;-75
2024/04/22 02:23:33;;;;;;;;;;;;;;;;;;1106731;26;20321;-75
2024/04/22 02:24:03;;;;;;;;;;;;;;;;;;1106917;26;19970;-75
2024/04/22 02:24:34;;;;;;;;;;;;;;;;;;1107450;26;19981;-75
2024/04/22 02:25:04;;;;;;;;;;;;;;;;;;1107496;26;19936;-75
2024/04/22 02:25:34;;;;;;;;;;;;;;;;;;1098321;26;19944;-75
2024/04/22 02:26:04;;;;;;;;;;;;;;;;;;1093614;26;19996;-75
2024/04/22 02:26:34;;;;;;;;;;;;;;;;;;1095679;26;19939;-75
2024/04/22 02:27:05;;;;;;;;;;;;;;;;;;1096056;26;20126;-75
2024/04/22 02:27:35;;;;;;;;;;;;;;;;;;1105850;26;19941;-75
2024/04/22 02:28:05;;;;;;;;;;;;;;;;;;1104166;26;19929;-75
2024/04/22 02:28:35;;;;;;;;;;;;;;;;;;1104968;26;19956;-74
2024/04/22 02:29:05;;;;;;;;;;;;;;;;;;1106163;26;20035;-75
2024/04/22 02:29:36;;;;;;;;;;;;;;;;;;1101991;26;19977;-75
2024/04/22 02:30:06;;;;;;;;;;;;;;;;;;1103016;26;19936;-75
2024/04/22 02:30:36;;;;;;;;;;;;;;;;;;1105009;26;19946;-75
2024/04/22 02:31:06;;;;;;;;;;;;;;;;;;1099797;26;19942;-75
2024/04/22 02:31:37;;;;;;;;;;;;;;;;;;1104801;26;19938;-75
2024/04/22 02:32:07;;;;;;;;;;;;;;;;;;1098581;26;19953;-74
2024/04/22 02:32:37;;;;;;;;;;;;;;;;;;1101195;26;19992;-74
2024/04/22 02:33:08;;;;;;;;;;;;;;;;;;1096386;26;19950;-76
2024/04/22 02:33:38;;;;;;;;;;;;;;;;;;1093790;26;19979;-75
2024/04/22 02:34:08;;;;;;;;;;;;;;;;;;1092603;27;19942;-75
2024/04/22 02:34:39;;;;;;;;;;;;;;;;;;1086057;27;20011;-75
2024/04/22 02:35:12;;;;;;;;;;;;;;;;;;1099576;26;19951;-76
2024/04/22 02:35:42;;;;;;;;;;;;;;;;;;1102261;26;19949;-74
2024/04/22 02:36:12;;;;;;;;;;;;;;;;;;1097685;26;19935;-74
2024/04/22 02:36:42;;;;;;;;;;;;;;;;;;1091221;27;19934;-75
2024/04/22 02:37:13;;;;;;;;;;;;;;;;;;1087193;27;20273;-75
2024/04/22 02:37:43;;;;;;;;;;;;;;;;;;1100032;26;19931;-75
2024/04/22 02:38:14;;;;;;;;;;;;;;;;;;1100574;26;19945;-75
2024/04/22 02:38:45;;;;;;;;;;;;;;;;;;1096817;26;19937;-75
2024/04/22 02:39:15;;;;;;;;;;;;;;;;;;1101472;26;19937;-75
2024/04/22 02:39:45;;;;;;;;;;;;;;;;;;1097666;26;19986;-76
2024/04/22 02:40:15;;;;;;;;;;;;;;;;;;1108285;26;20320;-76
2024/04/22 02:40:46;;;;;;;;;;;;;;;;;;1103870;26;19938;-76
2024/04/22 02:41:16;;;;;;;;;;;;;;;;;;1102486;26;20014;-75
2024/04/22 02:41:46;;;;;;;;;;;;;;;;;;1103377;26;19953;-75
2024/04/22 02:42:16;;;;;;;;;;;;;;;;;;1097785;26;19975;-75
2024/04/22 02:42:47;;;;;;;;;;;;;;;;;;1098223;26;19939;-75
2024/04/22 02:43:17;;;;;;;;;;;;;;;;;;1088670;27;20773;-75
2024/04/22 02:43:48;;;;;;;;;;;;;;;;;;1094863;26;19978;-75
2024/04/22 02:44:19;;;;;;;;;;;;;;;;;;1097972;26;19950;-75
2024/04/22 02:44:49;;;;;;;;;;;;;;;;;;1095592;26;19942;-75
2024/04/22 02:45:19;;;;;;;;;;;;;;;;;;1103669;26;20009;-75
2024/04/22 02:45:49;;;;;;;;;;;;;;;;;;1096265;26;20396;-74
2024/04/22 02:46:20;;;;;;;;;;;;;;;;;;1094997;27;20484;-75
2024/04/22 02:46:50;;;;;;;;;;;;;;;;;;1091106;27;19971;-75
2024/04/22 02:47:20;;;;;;;;;;;;;;;;;;1089570;27;20355;-75
2024/04/22 02:47:50;;;;;;;;;;;;;;;;;;1094331;26;19934;-75
2024/04/22 02:48:21;;;;;;;;;;;;;;;;;;1102728;26;20257;-75
2024/04/22 02:48:51;;;;;;;;;;;;;;;;;;1103899;26;20261;-75
2024/04/22 02:49:21;;;;;;;;;;;;;;;;;;1103410;26;19931;-75
2024/04/22 02:49:51;;;;;;;;;;;;;;;;;;1101856;26;19931;-75
2024/04/22 02:50:22;;;;;;;;;;;;;;;;;;1104371;26;19941;-75
2024/04/22 02:50:52;;;;;;;;;;;;;;;;;;1095130;26;19970;-76
2024/04/22 02:51:22;;;;;;;;;;;;;;;;;;1102050;26;20344;-75
2024/04/22 02:51:52;;;;;;;;;;;;;;;;;;1097306;26;20412;-75
2024/04/22 02:52:23;;;;;;;;;;;;;;;;;;1096557;26;19930;-75
2024/04/22 02:52:53;;;;;;;;;;;;;;;;;;1102863;26;19944;-75
2024/04/22 02:53:24;;;;;;;;;;;;;;;;;;1099316;26;20004;-84
2024/04/22 02:53:56;;;;;;;;;;;;;;;;;;1085668;22;19938;-75
2024/04/22 02:54:28;;;;;;;;;;;;;;;;;;1072634;27;19932;-76
2024/04/22 02:54:58;;;;;;;;;;;;;;;;;;1075909;27;20329;-75
2024/04/22 02:55:29;;;;;;;;;;;;;;;;;;1079596;27;19932;-76
2024/04/22 02:56:00;;;;;;;;;;;;;;;;;;1087196;27;20018;-77
2024/04/22 02:56:30;;;;;;;;;;;;;;;;;;1087863;27;20061;-76
2024/04/22 02:57:02;;;;;;;;;;;;;;;;;;1082781;27;19991;-77
2024/04/22 02:57:32;;;;;;;;;;;;;;;;;;1080811;27;20292;-76
2024/04/22 02:58:03;;;;;;;;;;;;;;;;;;1096366;21;19949;-75
2024/04/22 02:58:33;;;;;;;;;;;;;;;;;;1116458;26;19961;-76
2024/04/22 02:59:03;;;;;;;;;;;;;;;;;;1117295;26;19935;-75
2024/04/22 02:59:33;;;;;;;;;;;;;;;;;;1111341;26;20752;-76
2024/04/22 03:00:04;;;;;;;;;;;;;;;;;;1107214;26;19929;-75
2024/04/22 03:00:34;;;;;;;;;;;;;;;;;;1114953;26;19996;-76
2024/04/22 03:01:05;;;;;;;;;;;;;;;;;;1111327;26;19968;-77
2024/04/22 03:01:36;;;;;;;;;;;;;;;;;;1108610;26;20610;-77
2024/04/22 03:02:06;;;;;;;;;;;;;;;;;;1117000;21;19929;-77
2024/04/22 03:02:37;;;;;;;;;;;;;;;;;;1111431;26;19929;-76
2024/04/22 03:03:07;;;;;;;;;;;;;;;;;;1116989;26;19954;-76
2024/04/22 03:03:38;;;;;;;;;;;;;;;;;;1117397;26;19929;-76
2024/04/22 03:04:08;;;;;;;;;;;;;;;;;;1118316;26;20003;-76
2024/04/22 03:04:38;;;;;;;;;;;;;;;;;;1122871;26;19929;-76
2024/04/22 03:05:09;;;;;;;;;;;;;;;;;;1118290;26;19937;-76
2024/04/22 03:05:39;;;;;;;;;;;;;;;;;;1118440;26;19929;-76
2024/04/22 03:06:09;;;;;;;;;;;;;;;;;;1118292;26;19937;-76
2024/04/22 03:06:40;;;;;;;;;;;;;;;;;;1113052;26;19936;-76
2024/04/22 03:07:10;;;;;;;;;;;;;;;;;;1116849;26;19929;-76
2024/04/22 03:07:40;;;;;;;;;;;;;;;;;;1117544;26;20484;-76
2024/04/22 03:08:11;;;;;;;;;;;;;;;;;;1115606;26;20067;-76
2024/04/22 03:08:42;;;;;;;;;;;;;;;;;;1117370;26;20002;-77
2024/04/22 03:09:12;;;;;;;;;;;;;;;;;;1118602;26;19933;-77
2024/04/22 03:09:44;;;;;;;;;;;;;;;;;;1119024;26;20317;-77
2024/04/22 03:10:14;;;;;;;;;;;;;;;;;;1115756;26;19937;-77
2024/04/22 03:10:44;;;;;;;;;;;;;;;;;;1116994;26;19929;-77
2024/04/22 03:11:15;;;;;;;;;;;;;;;;;;1109857;26;19974;-77
2024/04/22 03:11:48;;;;;;;;;;;;;;;;;;1111982;26;20417;-77
2024/04/22 03:12:18;;;;;;;;;;;;;;;;;;1108181;26;20363;-77
2024/04/22 03:12:49;;;;;;;;;;;;;;;;;;1110145;26;19941;-76
2024/04/22 03:13:19;;;;;;;;;;;;;;;;;;1110056;26;19936;-77
2024/04/22 03:13:49;;;;;;;;;;;;;;;;;;1115694;26;19937;-76
2024/04/22 03:14:19;;;;;;;;;;;;;;;;;;1119494;26;19929;-76
2024/04/22 03:14:50;;;;;;;;;;;;;;;;;;1110251;26;19928;-77
2024/04/22 03:15:20;;;;;;;;;;;;;;;;;;1111694;26;20012;-76
2024/04/22 03:15:50;;;;;;;;;;;;;;;;;;1109910;26;19953;-76
2024/04/22 03:16:20;;;;;;;;;;;;;;;;;;1108658;26;20408;-76
2024/04/22 03:16:51;;;;;;;;;;;;;;;;;;1109495;26;19930;-76
2024/04/22 03:17:21;;;;;;;;;;;;;;;;;;1093900;26;20028;-76
2024/04/22 03:17:52;;;;;;;;;;;;;;;;;;1105823;26;20034;-76
2024/04/22 03:18:22;;;;;;;;;;;;;;;;;;1116158;26;19981;-76
2024/04/22 03:18:52;;;;;;;;;;;;;;;;;;1127670;21;19936;-76
2024/04/22 03:19:23;;;;;;;;;;;;;;;;;;1123065;26;19936;-76
2024/04/22 03:19:53;;;;;;;;;;;;;;;;;;1123480;26;20309;-76
2024/04/22 03:20:23;;;;;;;;;;;;;;;;;;1117997;26;19947;-76
2024/04/22 03:20:54;;;;;;;;;;;;;;;;;;1119398;26;19945;-76
2024/04/22 03:21:24;;;;;;;;;;;;;;;;;;1118093;26;19966;-77
2024/04/22 03:21:54;;;;;;;;;;;;;;;;;;1113914;26;19937;-76
2024/04/22 03:22:25;;;;;;;;;;;;;;;;;;1120190;26;20308;-76
2024/04/22 03:22:55;;;;;;;;;;;;;;;;;;1115616;26;19930;-76
2024/04/22 03:23:27;;;;;;;;;;;;;;;;;;1116533;26;19940;-75
2024/04/22 03:23:57;;;;;;;;;;;;;;;;;;1114232;26;19938;-76
2024/04/22 03:24:28;;;;;;;;;;;;;;;;;;1113817;26;19930;-75
2024/04/22 03:24:58;;;;;;;;;;;;;;;;;;1119771;26;19958;-75
2024/04/22 03:25:28;;;;;;;;;;;;;;;;;;1115260;26;20106;-76
2024/04/22 03:25:59;;;;;;;;;;;;;;;;;;1122649;26;19929;-75
2024/04/22 03:26:29;;;;;;;;;;;;;;;;;;1121490;26;19929;-75
2024/04/22 03:26:59;;;;;;;;;;;;;;;;;;1114097;26;19933;-76